sensor_id;sensor_type;location;lat;lon;timestamp;P1;durP1;ratioP1;P2;durP2;ratioP2
71395;SDS011;59888;55.814;37.132;2024-03-17T00:01:32;22.85;;;6.45;;
71395;SDS011;59888;55.814;37.132;2024-03-17T00:03:58;28.23;;;5.82;;
71395;SDS011;59888;55.814;37.132;2024-03-17T00:06:24;37.35;;;6.50;;
71395;SDS011;59888;55.814;37.132;2024-03-17T00:08:50;26.15;;;5.75;;
71395;SDS011;59888;55.814;37.132;2024-03-17T00:11:16;22.42;;;5.53;;
71395;SDS011;59888;55.814;37.132;2024-03-17T00:13:42;29.13;;;5.93;;
71395;SDS011;59888;55.814;37.132;2024-03-17T00:16:07;25.70;;;5.65;;
71395;SDS011;59888;55.814;37.132;2024-03-17T00:18:33;30.30;;;5.80;;
71395;SDS011;59888;55.814;37.132;2024-03-17T00:21:00;23.15;;;5.95;;
71395;SDS011;59888;55.814;37.132;2024-03-17T00:23:25;27.40;;;5.82;;
71395;SDS011;59888;55.814;37.132;2024-03-17T00:25:51;28.92;;;5.70;;
71395;SDS011;59888;55.814;37.132;2024-03-17T00:28:17;29.42;;;5.80;;
71395;SDS011;59888;55.814;37.132;2024-03-17T00:30:43;29.70;;;5.72;;
71395;SDS011;59888;55.814;37.132;2024-03-17T00:33:09;27.17;;;6.00;;
71395;SDS011;59888;55.814;37.132;2024-03-17T00:35:35;36.78;;;5.43;;
71395;SDS011;59888;55.814;37.132;2024-03-17T00:38:02;26.80;;;6.15;;
71395;SDS011;59888;55.814;37.132;2024-03-17T00:40:38;36.33;;;5.87;;
71395;SDS011;59888;55.814;37.132;2024-03-17T00:43:06;33.28;;;5.78;;
71395;SDS011;59888;55.814;37.132;2024-03-17T00:45:32;36.20;;;6.22;;
71395;SDS011;59888;55.814;37.132;2024-03-17T00:47:58;25.30;;;5.57;;
71395;SDS011;59888;55.814;37.132;2024-03-17T00:50:23;28.85;;;5.78;;
71395;SDS011;59888;55.814;37.132;2024-03-17T00:52:49;21.38;;;5.93;;
71395;SDS011;59888;55.814;37.132;2024-03-17T00:55:15;32.05;;;7.03;;
71395;SDS011;59888;55.814;37.132;2024-03-17T00:57:41;32.80;;;5.75;;
71395;SDS011;59888;55.814;37.132;2024-03-17T01:00:07;28.70;;;5.75;;
71395;SDS011;59888;55.814;37.132;2024-03-17T01:02:37;20.95;;;5.45;;
71395;SDS011;59888;55.814;37.132;2024-03-17T01:05:05;21.70;;;5.50;;
71395;SDS011;59888;55.814;37.132;2024-03-17T01:07:32;26.98;;;6.07;;
71395;SDS011;59888;55.814;37.132;2024-03-17T01:09:58;22.20;;;5.85;;
71395;SDS011;59888;55.814;37.132;2024-03-17T01:12:23;25.10;;;4.88;;
71395;SDS011;59888;55.814;37.132;2024-03-17T01:14:49;31.23;;;5.03;;
71395;SDS011;59888;55.814;37.132;2024-03-17T01:17:15;21.33;;;5.10;;
71395;SDS011;59888;55.814;37.132;2024-03-17T01:19:41;21.17;;;6.38;;
71395;SDS011;59888;55.814;37.132;2024-03-17T01:22:07;31.80;;;6.30;;
71395;SDS011;59888;55.814;37.132;2024-03-17T01:24:33;28.33;;;5.72;;
71395;SDS011;59888;55.814;37.132;2024-03-17T01:27:00;27.35;;;5.90;;
71395;SDS011;59888;55.814;37.132;2024-03-17T01:29:27;21.25;;;5.53;;
71395;SDS011;59888;55.814;37.132;2024-03-17T01:31:53;20.92;;;6.05;;
71395;SDS011;59888;55.814;37.132;2024-03-17T01:34:19;23.85;;;5.97;;
71395;SDS011;59888;55.814;37.132;2024-03-17T01:36:45;24.58;;;5.82;;
71395;SDS011;59888;55.814;37.132;2024-03-17T01:39:12;23.10;;;5.93;;
71395;SDS011;59888;55.814;37.132;2024-03-17T01:41:38;27.40;;;5.80;;
71395;SDS011;59888;55.814;37.132;2024-03-17T01:44:04;31.20;;;5.43;;
71395;SDS011;59888;55.814;37.132;2024-03-17T01:46:30;26.67;;;5.72;;
71395;SDS011;59888;55.814;37.132;2024-03-17T01:48:56;24.35;;;6.18;;
71395;SDS011;59888;55.814;37.132;2024-03-17T01:51:22;25.63;;;5.53;;
71395;SDS011;59888;55.814;37.132;2024-03-17T01:53:49;21.25;;;6.40;;
71395;SDS011;59888;55.814;37.132;2024-03-17T01:56:15;23.08;;;5.72;;
71395;SDS011;59888;55.814;37.132;2024-03-17T01:58:43;26.95;;;6.00;;
71395;SDS011;59888;55.814;37.132;2024-03-17T02:01:09;27.35;;;5.13;;
71395;SDS011;59888;55.814;37.132;2024-03-17T02:03:35;32.55;;;6.05;;
71395;SDS011;59888;55.814;37.132;2024-03-17T02:06:01;32.90;;;6.25;;
71395;SDS011;59888;55.814;37.132;2024-03-17T02:08:27;22.23;;;6.07;;
71395;SDS011;59888;55.814;37.132;2024-03-17T02:10:53;21.63;;;5.53;;
71395;SDS011;59888;55.814;37.132;2024-03-17T02:13:20;20.75;;;5.40;;
71395;SDS011;59888;55.814;37.132;2024-03-17T02:15:47;27.15;;;5.82;;
71395;SDS011;59888;55.814;37.132;2024-03-17T02:18:33;26.00;;;6.20;;
71395;SDS011;59888;55.814;37.132;2024-03-17T02:20:59;21.73;;;6.00;;
71395;SDS011;59888;55.814;37.132;2024-03-17T02:23:27;29.65;;;5.78;;
71395;SDS011;59888;55.814;37.132;2024-03-17T02:25:53;27.05;;;5.43;;
71395;SDS011;59888;55.814;37.132;2024-03-17T02:28:20;24.55;;;5.43;;
71395;SDS011;59888;55.814;37.132;2024-03-17T02:30:46;21.85;;;6.45;;
71395;SDS011;59888;55.814;37.132;2024-03-17T02:33:11;18.02;;;5.78;;
71395;SDS011;59888;55.814;37.132;2024-03-17T02:35:37;24.58;;;5.47;;
71395;SDS011;59888;55.814;37.132;2024-03-17T02:38:03;24.90;;;5.68;;
71395;SDS011;59888;55.814;37.132;2024-03-17T02:40:29;19.15;;;5.40;;
71395;SDS011;59888;55.814;37.132;2024-03-17T02:42:55;19.52;;;5.68;;
71395;SDS011;59888;55.814;37.132;2024-03-17T02:45:22;26.08;;;5.63;;
71395;SDS011;59888;55.814;37.132;2024-03-17T02:47:47;23.45;;;6.20;;
71395;SDS011;59888;55.814;37.132;2024-03-17T02:50:15;26.25;;;5.60;;
71395;SDS011;59888;55.814;37.132;2024-03-17T02:52:41;25.52;;;5.45;;
71395;SDS011;59888;55.814;37.132;2024-03-17T02:55:07;22.48;;;5.38;;
71395;SDS011;59888;55.814;37.132;2024-03-17T02:57:33;28.25;;;6.85;;
71395;SDS011;59888;55.814;37.132;2024-03-17T03:00:01;25.00;;;5.18;;
71395;SDS011;59888;55.814;37.132;2024-03-17T03:02:31;26.52;;;5.68;;
71395;SDS011;59888;55.814;37.132;2024-03-17T03:04:58;30.17;;;6.03;;
71395;SDS011;59888;55.814;37.132;2024-03-17T03:07:23;20.92;;;5.88;;
71395;SDS011;59888;55.814;37.132;2024-03-17T03:09:50;23.30;;;6.00;;
71395;SDS011;59888;55.814;37.132;2024-03-17T03:12:16;28.40;;;5.78;;
71395;SDS011;59888;55.814;37.132;2024-03-17T03:14:44;24.02;;;5.38;;
71395;SDS011;59888;55.814;37.132;2024-03-17T03:17:09;23.65;;;5.95;;
71395;SDS011;59888;55.814;37.132;2024-03-17T03:19:35;23.67;;;5.60;;
71395;SDS011;59888;55.814;37.132;2024-03-17T03:22:01;24.75;;;5.40;;
71395;SDS011;59888;55.814;37.132;2024-03-17T03:24:27;18.35;;;5.25;;
71395;SDS011;59888;55.814;37.132;2024-03-17T03:26:53;25.92;;;5.70;;
71395;SDS011;59888;55.814;37.132;2024-03-17T03:29:19;17.15;;;5.43;;
71395;SDS011;59888;55.814;37.132;2024-03-17T03:31:45;23.48;;;6.00;;
71395;SDS011;59888;55.814;37.132;2024-03-17T03:34:11;19.98;;;5.88;;
71395;SDS011;59888;55.814;37.132;2024-03-17T03:36:38;23.88;;;4.95;;
71395;SDS011;59888;55.814;37.132;2024-03-17T03:39:04;30.83;;;5.97;;
71395;SDS011;59888;55.814;37.132;2024-03-17T03:41:36;23.13;;;5.90;;
71395;SDS011;59888;55.814;37.132;2024-03-17T03:44:04;27.38;;;6.20;;
71395;SDS011;59888;55.814;37.132;2024-03-17T03:46:30;23.40;;;5.78;;
71395;SDS011;59888;55.814;37.132;2024-03-17T03:48:56;19.90;;;5.55;;
71395;SDS011;59888;55.814;37.132;2024-03-17T03:51:22;23.45;;;5.90;;
71395;SDS011;59888;55.814;37.132;2024-03-17T03:53:50;20.27;;;6.00;;
71395;SDS011;59888;55.814;37.132;2024-03-17T03:56:16;23.38;;;5.10;;
71395;SDS011;59888;55.814;37.132;2024-03-17T03:58:43;25.23;;;5.95;;
71395;SDS011;59888;55.814;37.132;2024-03-17T04:01:11;23.83;;;5.70;;
71395;SDS011;59888;55.814;37.132;2024-03-17T04:03:38;25.42;;;5.40;;
71395;SDS011;59888;55.814;37.132;2024-03-17T04:06:04;20.85;;;6.00;;
71395;SDS011;59888;55.814;37.132;2024-03-17T04:08:32;25.65;;;5.13;;
71395;SDS011;59888;55.814;37.132;2024-03-17T04:10:58;20.33;;;5.63;;
71395;SDS011;59888;55.814;37.132;2024-03-17T04:13:24;18.75;;;5.10;;
71395;SDS011;59888;55.814;37.132;2024-03-17T04:15:49;24.63;;;5.47;;
71395;SDS011;59888;55.814;37.132;2024-03-17T04:18:16;30.17;;;6.32;;
71395;SDS011;59888;55.814;37.132;2024-03-17T04:20:43;31.95;;;5.43;;
71395;SDS011;59888;55.814;37.132;2024-03-17T04:23:09;21.58;;;5.63;;
71395;SDS011;59888;55.814;37.132;2024-03-17T04:25:35;26.52;;;6.00;;
71395;SDS011;59888;55.814;37.132;2024-03-17T04:28:00;25.92;;;5.88;;
71395;SDS011;59888;55.814;37.132;2024-03-17T04:30:26;18.75;;;6.28;;
71395;SDS011;59888;55.814;37.132;2024-03-17T04:32:52;25.45;;;6.03;;
71395;SDS011;59888;55.814;37.132;2024-03-17T04:35:18;27.75;;;6.55;;
71395;SDS011;59888;55.814;37.132;2024-03-17T04:37:44;22.77;;;5.72;;
71395;SDS011;59888;55.814;37.132;2024-03-17T04:40:12;21.27;;;5.80;;
71395;SDS011;59888;55.814;37.132;2024-03-17T04:42:38;23.70;;;5.78;;
71395;SDS011;59888;55.814;37.132;2024-03-17T04:45:05;26.20;;;6.65;;
71395;SDS011;59888;55.814;37.132;2024-03-17T04:47:31;26.08;;;6.05;;
71395;SDS011;59888;55.814;37.132;2024-03-17T04:49:57;24.67;;;7.45;;
71395;SDS011;59888;55.814;37.132;2024-03-17T04:52:23;25.35;;;6.38;;
71395;SDS011;59888;55.814;37.132;2024-03-17T04:54:49;26.85;;;6.55;;
71395;SDS011;59888;55.814;37.132;2024-03-17T04:57:15;27.38;;;6.30;;
71395;SDS011;59888;55.814;37.132;2024-03-17T04:59:40;24.92;;;6.78;;
71395;SDS011;59888;55.814;37.132;2024-03-17T05:02:07;25.42;;;7.07;;
71395;SDS011;59888;55.814;37.132;2024-03-17T05:04:32;17.25;;;5.95;;
71395;SDS011;59888;55.814;37.132;2024-03-17T05:06:58;19.02;;;6.03;;
71395;SDS011;59888;55.814;37.132;2024-03-17T05:09:24;23.40;;;6.65;;
71395;SDS011;59888;55.814;37.132;2024-03-17T05:11:50;18.15;;;6.20;;
71395;SDS011;59888;55.814;37.132;2024-03-17T05:14:19;20.90;;;5.68;;
71395;SDS011;59888;55.814;37.132;2024-03-17T05:16:54;20.48;;;6.35;;
71395;SDS011;59888;55.814;37.132;2024-03-17T05:19:20;24.48;;;5.72;;
71395;SDS011;59888;55.814;37.132;2024-03-17T05:21:46;23.02;;;7.65;;
71395;SDS011;59888;55.814;37.132;2024-03-17T05:24:12;19.65;;;6.55;;
71395;SDS011;59888;55.814;37.132;2024-03-17T05:26:38;22.83;;;6.20;;
71395;SDS011;59888;55.814;37.132;2024-03-17T05:29:04;21.98;;;6.05;;
71395;SDS011;59888;55.814;37.132;2024-03-17T05:31:30;31.55;;;7.18;;
71395;SDS011;59888;55.814;37.132;2024-03-17T05:33:57;25.15;;;6.50;;
71395;SDS011;59888;55.814;37.132;2024-03-17T05:36:24;24.38;;;6.60;;
71395;SDS011;59888;55.814;37.132;2024-03-17T05:38:50;27.75;;;6.85;;
71395;SDS011;59888;55.814;37.132;2024-03-17T05:41:15;21.70;;;6.22;;
71395;SDS011;59888;55.814;37.132;2024-03-17T05:43:42;24.83;;;6.65;;
71395;SDS011;59888;55.814;37.132;2024-03-17T05:46:09;23.95;;;6.68;;
71395;SDS011;59888;55.814;37.132;2024-03-17T05:48:35;21.40;;;6.55;;
71395;SDS011;59888;55.814;37.132;2024-03-17T05:51:06;26.70;;;7.50;;
71395;SDS011;59888;55.814;37.132;2024-03-17T05:53:32;20.65;;;6.53;;
71395;SDS011;59888;55.814;37.132;2024-03-17T05:55:59;21.63;;;7.25;;
71395;SDS011;59888;55.814;37.132;2024-03-17T05:58:24;22.27;;;6.47;;
71395;SDS011;59888;55.814;37.132;2024-03-17T06:00:50;25.73;;;7.57;;
71395;SDS011;59888;55.814;37.132;2024-03-17T06:03:16;29.65;;;6.80;;
71395;SDS011;59888;55.814;37.132;2024-03-17T06:05:43;29.60;;;6.78;;
71395;SDS011;59888;55.814;37.132;2024-03-17T06:08:11;22.95;;;6.97;;
71395;SDS011;59888;55.814;37.132;2024-03-17T06:10:37;22.10;;;6.40;;
71395;SDS011;59888;55.814;37.132;2024-03-17T06:13:03;34.20;;;6.72;;
71395;SDS011;59888;55.814;37.132;2024-03-17T06:15:29;22.25;;;6.38;;
71395;SDS011;59888;55.814;37.132;2024-03-17T06:17:55;25.63;;;6.35;;
71395;SDS011;59888;55.814;37.132;2024-03-17T06:20:25;23.05;;;6.95;;
71395;SDS011;59888;55.814;37.132;2024-03-17T06:22:54;27.13;;;6.60;;
71395;SDS011;59888;55.814;37.132;2024-03-17T06:25:20;25.80;;;7.38;;
71395;SDS011;59888;55.814;37.132;2024-03-17T06:27:51;29.23;;;6.78;;
71395;SDS011;59888;55.814;37.132;2024-03-17T06:30:16;23.05;;;7.00;;
71395;SDS011;59888;55.814;37.132;2024-03-17T06:32:43;29.35;;;7.22;;
71395;SDS011;59888;55.814;37.132;2024-03-17T06:35:12;25.27;;;7.60;;
71395;SDS011;59888;55.814;37.132;2024-03-17T06:37:41;22.67;;;6.60;;
71395;SDS011;59888;55.814;37.132;2024-03-17T06:40:08;22.38;;;7.20;;
71395;SDS011;59888;55.814;37.132;2024-03-17T06:42:38;26.15;;;7.47;;
71395;SDS011;59888;55.814;37.132;2024-03-17T06:45:03;30.05;;;8.43;;
71395;SDS011;59888;55.814;37.132;2024-03-17T06:47:30;25.80;;;7.22;;
71395;SDS011;59888;55.814;37.132;2024-03-17T06:49:56;31.50;;;8.90;;
71395;SDS011;59888;55.814;37.132;2024-03-17T06:52:21;25.90;;;7.32;;
71395;SDS011;59888;55.814;37.132;2024-03-17T06:54:47;25.08;;;6.75;;
71395;SDS011;59888;55.814;37.132;2024-03-17T06:57:16;28.90;;;7.22;;
71395;SDS011;59888;55.814;37.132;2024-03-17T06:59:42;20.30;;;7.82;;
71395;SDS011;59888;55.814;37.132;2024-03-17T07:02:08;29.58;;;7.57;;
71395;SDS011;59888;55.814;37.132;2024-03-17T07:04:37;31.52;;;8.63;;
71395;SDS011;59888;55.814;37.132;2024-03-17T07:07:03;26.30;;;8.80;;
71395;SDS011;59888;55.814;37.132;2024-03-17T07:09:29;30.95;;;9.43;;
71395;SDS011;59888;55.814;37.132;2024-03-17T07:11:56;25.75;;;8.55;;
71395;SDS011;59888;55.814;37.132;2024-03-17T07:14:21;33.75;;;8.23;;
71395;SDS011;59888;55.814;37.132;2024-03-17T07:16:47;34.65;;;8.50;;
71395;SDS011;59888;55.814;37.132;2024-03-17T07:19:15;29.30;;;8.80;;
71395;SDS011;59888;55.814;37.132;2024-03-17T07:21:41;27.75;;;8.77;;
71395;SDS011;59888;55.814;37.132;2024-03-17T07:24:06;30.52;;;8.07;;
71395;SDS011;59888;55.814;37.132;2024-03-17T07:26:33;25.20;;;8.55;;
71395;SDS011;59888;55.814;37.132;2024-03-17T07:29:00;28.55;;;8.10;;
71395;SDS011;59888;55.814;37.132;2024-03-17T07:31:25;27.33;;;8.45;;
71395;SDS011;59888;55.814;37.132;2024-03-17T07:33:51;24.10;;;8.32;;
71395;SDS011;59888;55.814;37.132;2024-03-17T07:36:17;29.63;;;8.68;;
71395;SDS011;59888;55.814;37.132;2024-03-17T07:38:43;28.15;;;8.20;;
71395;SDS011;59888;55.814;37.132;2024-03-17T07:41:10;38.08;;;8.52;;
71395;SDS011;59888;55.814;37.132;2024-03-17T07:43:36;28.35;;;8.82;;
71395;SDS011;59888;55.814;37.132;2024-03-17T07:48:35;28.50;;;8.38;;
71395;SDS011;59888;55.814;37.132;2024-03-17T07:51:01;32.92;;;8.57;;
71395;SDS011;59888;55.814;37.132;2024-03-17T07:53:30;29.83;;;8.43;;
71395;SDS011;59888;55.814;37.132;2024-03-17T07:55:58;34.22;;;8.70;;
71395;SDS011;59888;55.814;37.132;2024-03-17T07:58:24;26.40;;;7.53;;
71395;SDS011;59888;55.814;37.132;2024-03-17T08:00:51;30.45;;;9.65;;
71395;SDS011;59888;55.814;37.132;2024-03-17T08:03:18;28.80;;;8.48;;
71395;SDS011;59888;55.814;37.132;2024-03-17T08:05:47;24.20;;;7.78;;
71395;SDS011;59888;55.814;37.132;2024-03-17T08:08:13;22.00;;;7.93;;
71395;SDS011;59888;55.814;37.132;2024-03-17T08:10:39;32.90;;;8.05;;
71395;SDS011;59888;55.814;37.132;2024-03-17T08:13:04;33.20;;;8.15;;
71395;SDS011;59888;55.814;37.132;2024-03-17T08:15:30;24.67;;;8.07;;
71395;SDS011;59888;55.814;37.132;2024-03-17T08:17:56;27.73;;;8.50;;
71395;SDS011;59888;55.814;37.132;2024-03-17T08:20:22;32.80;;;8.65;;
71395;SDS011;59888;55.814;37.132;2024-03-17T08:22:48;35.58;;;8.88;;
71395;SDS011;59888;55.814;37.132;2024-03-17T08:25:14;31.83;;;8.80;;
71395;SDS011;59888;55.814;37.132;2024-03-17T08:27:40;28.55;;;8.20;;
71395;SDS011;59888;55.814;37.132;2024-03-17T08:30:08;24.20;;;8.02;;
71395;SDS011;59888;55.814;37.132;2024-03-17T08:32:35;24.60;;;8.77;;
71395;SDS011;59888;55.814;37.132;2024-03-17T08:35:01;27.60;;;8.70;;
71395;SDS011;59888;55.814;37.132;2024-03-17T08:37:27;24.73;;;8.45;;
71395;SDS011;59888;55.814;37.132;2024-03-17T08:39:54;29.05;;;8.57;;
71395;SDS011;59888;55.814;37.132;2024-03-17T08:42:19;33.75;;;9.35;;
71395;SDS011;59888;55.814;37.132;2024-03-17T08:44:46;27.58;;;8.45;;
71395;SDS011;59888;55.814;37.132;2024-03-17T08:47:12;27.33;;;8.70;;
71395;SDS011;59888;55.814;37.132;2024-03-17T08:49:38;32.90;;;8.85;;
71395;SDS011;59888;55.814;37.132;2024-03-17T08:52:06;24.98;;;8.23;;
71395;SDS011;59888;55.814;37.132;2024-03-17T08:54:32;27.52;;;8.52;;
71395;SDS011;59888;55.814;37.132;2024-03-17T08:56:58;27.50;;;8.80;;
71395;SDS011;59888;55.814;37.132;2024-03-17T08:59:24;27.52;;;8.25;;
71395;SDS011;59888;55.814;37.132;2024-03-17T09:01:50;26.02;;;8.38;;
71395;SDS011;59888;55.814;37.132;2024-03-17T09:04:16;38.45;;;8.93;;
71395;SDS011;59888;55.814;37.132;2024-03-17T09:06:42;26.67;;;8.77;;
71395;SDS011;59888;55.814;37.132;2024-03-17T09:09:09;23.13;;;9.13;;
71395;SDS011;59888;55.814;37.132;2024-03-17T09:11:35;31.10;;;9.82;;
71395;SDS011;59888;55.814;37.132;2024-03-17T09:14:01;31.02;;;8.10;;
71395;SDS011;59888;55.814;37.132;2024-03-17T09:16:27;29.48;;;8.30;;
71395;SDS011;59888;55.814;37.132;2024-03-17T09:18:56;29.80;;;8.45;;
71395;SDS011;59888;55.814;37.132;2024-03-17T09:21:22;26.90;;;7.68;;
71395;SDS011;59888;55.814;37.132;2024-03-17T09:23:48;34.38;;;9.07;;
71395;SDS011;59888;55.814;37.132;2024-03-17T09:26:14;27.55;;;8.18;;
71395;SDS011;59888;55.814;37.132;2024-03-17T09:28:42;33.58;;;9.10;;
71395;SDS011;59888;55.814;37.132;2024-03-17T09:31:08;32.65;;;9.23;;
71395;SDS011;59888;55.814;37.132;2024-03-17T09:33:35;31.15;;;8.45;;
71395;SDS011;59888;55.814;37.132;2024-03-17T09:36:08;37.38;;;8.32;;
71395;SDS011;59888;55.814;37.132;2024-03-17T09:38:36;26.77;;;8.63;;
71395;SDS011;59888;55.814;37.132;2024-03-17T09:41:03;29.70;;;8.95;;
71395;SDS011;59888;55.814;37.132;2024-03-17T09:43:29;22.50;;;7.63;;
71395;SDS011;59888;55.814;37.132;2024-03-17T09:45:55;28.23;;;8.77;;
71395;SDS011;59888;55.814;37.132;2024-03-17T09:48:24;26.35;;;8.70;;
71395;SDS011;59888;55.814;37.132;2024-03-17T09:50:51;26.67;;;8.38;;
71395;SDS011;59888;55.814;37.132;2024-03-17T09:53:25;26.05;;;9.57;;
71395;SDS011;59888;55.814;37.132;2024-03-17T09:55:52;30.83;;;8.10;;
71395;SDS011;59888;55.814;37.132;2024-03-17T09:58:19;23.67;;;8.35;;
71395;SDS011;59888;55.814;37.132;2024-03-17T10:00:46;23.52;;;8.10;;
71395;SDS011;59888;55.814;37.132;2024-03-17T10:06:01;32.70;;;8.52;;
71395;SDS011;59888;55.814;37.132;2024-03-17T10:08:26;23.80;;;8.40;;
71395;SDS011;59888;55.814;37.132;2024-03-17T10:10:52;33.25;;;7.45;;
71395;SDS011;59888;55.814;37.132;2024-03-17T10:13:19;22.30;;;8.07;;
71395;SDS011;59888;55.814;37.132;2024-03-17T10:15:47;19.58;;;7.47;;
71395;SDS011;59888;55.814;37.132;2024-03-17T10:18:20;28.85;;;8.02;;
71395;SDS011;59888;55.814;37.132;2024-03-17T10:20:48;24.63;;;7.22;;
71395;SDS011;59888;55.814;37.132;2024-03-17T10:23:18;23.80;;;7.93;;
71395;SDS011;59888;55.814;37.132;2024-03-17T10:25:44;27.40;;;8.13;;
71395;SDS011;59888;55.814;37.132;2024-03-17T10:28:12;22.45;;;7.60;;
71395;SDS011;59888;55.814;37.132;2024-03-17T10:30:39;29.30;;;8.75;;
71395;SDS011;59888;55.814;37.132;2024-03-17T10:33:05;31.10;;;8.38;;
71395;SDS011;59888;55.814;37.132;2024-03-17T10:35:35;28.77;;;7.70;;
71395;SDS011;59888;55.814;37.132;2024-03-17T10:38:02;30.90;;;9.57;;
71395;SDS011;59888;55.814;37.132;2024-03-17T10:40:31;24.92;;;7.50;;
71395;SDS011;59888;55.814;37.132;2024-03-17T10:42:57;24.50;;;7.78;;
71395;SDS011;59888;55.814;37.132;2024-03-17T10:45:25;32.53;;;8.48;;
71395;SDS011;59888;55.814;37.132;2024-03-17T10:47:51;25.75;;;8.90;;
71395;SDS011;59888;55.814;37.132;2024-03-17T10:50:18;28.80;;;8.43;;
71395;SDS011;59888;55.814;37.132;2024-03-17T10:52:45;24.25;;;8.15;;
71395;SDS011;59888;55.814;37.132;2024-03-17T10:55:23;21.27;;;7.80;;
71395;SDS011;59888;55.814;37.132;2024-03-17T10:57:50;29.48;;;8.15;;
71395;SDS011;59888;55.814;37.132;2024-03-17T11:00:17;32.17;;;8.27;;
71395;SDS011;59888;55.814;37.132;2024-03-17T11:02:43;28.75;;;8.63;;
71395;SDS011;59888;55.814;37.132;2024-03-17T11:07:40;29.90;;;7.68;;
71395;SDS011;59888;55.814;37.132;2024-03-17T11:10:15;34.17;;;8.40;;
71395;SDS011;59888;55.814;37.132;2024-03-17T11:12:44;23.95;;;7.90;;
71395;SDS011;59888;55.814;37.132;2024-03-17T11:17:52;30.15;;;8.07;;
71395;SDS011;59888;55.814;37.132;2024-03-17T11:20:25;22.38;;;6.55;;
71395;SDS011;59888;55.814;37.132;2024-03-17T11:22:53;32.80;;;7.47;;
71395;SDS011;59888;55.814;37.132;2024-03-17T11:27:51;29.85;;;8.48;;
71395;SDS011;59888;55.814;37.132;2024-03-17T11:33:02;23.00;;;6.95;;
71395;SDS011;59888;55.814;37.132;2024-03-17T11:35:29;29.35;;;7.45;;
71395;SDS011;59888;55.814;37.132;2024-03-17T11:37:55;22.38;;;7.53;;
71395;SDS011;59888;55.814;37.132;2024-03-17T11:40:24;24.98;;;7.68;;
71395;SDS011;59888;55.814;37.132;2024-03-17T11:43:01;26.33;;;8.20;;
71395;SDS011;59888;55.814;37.132;2024-03-17T11:45:27;23.92;;;6.55;;
71395;SDS011;59888;55.814;37.132;2024-03-17T11:47:53;23.27;;;7.60;;
71395;SDS011;59888;55.814;37.132;2024-03-17T11:50:19;23.83;;;7.40;;
71395;SDS011;59888;55.814;37.132;2024-03-17T11:52:45;30.77;;;8.23;;
71395;SDS011;59888;55.814;37.132;2024-03-17T11:55:16;26.15;;;8.07;;
71395;SDS011;59888;55.814;37.132;2024-03-17T11:57:43;25.45;;;7.70;;
71395;SDS011;59888;55.814;37.132;2024-03-17T12:00:19;26.85;;;7.75;;
71395;SDS011;59888;55.814;37.132;2024-03-17T12:02:48;26.10;;;7.43;;
71395;SDS011;59888;55.814;37.132;2024-03-17T12:05:13;29.52;;;7.88;;
71395;SDS011;59888;55.814;37.132;2024-03-17T12:07:43;21.50;;;6.65;;
71395;SDS011;59888;55.814;37.132;2024-03-17T12:10:11;27.17;;;7.80;;
71395;SDS011;59888;55.814;37.132;2024-03-17T12:12:39;19.27;;;7.60;;
71395;SDS011;59888;55.814;37.132;2024-03-17T12:15:16;23.33;;;6.90;;
71395;SDS011;59888;55.814;37.132;2024-03-17T12:17:42;28.73;;;8.00;;
71395;SDS011;59888;55.814;37.132;2024-03-17T12:20:18;25.85;;;7.72;;
71395;SDS011;59888;55.814;37.132;2024-03-17T12:22:45;27.85;;;8.02;;
71395;SDS011;59888;55.814;37.132;2024-03-17T12:25:17;25.65;;;7.75;;
71395;SDS011;59888;55.814;37.132;2024-03-17T12:27:44;35.80;;;8.20;;
71395;SDS011;59888;55.814;37.132;2024-03-17T12:30:11;28.85;;;8.65;;
71395;SDS011;59888;55.814;37.132;2024-03-17T12:32:38;29.15;;;8.07;;
71395;SDS011;59888;55.814;37.132;2024-03-17T12:35:09;25.42;;;8.20;;
71395;SDS011;59888;55.814;37.132;2024-03-17T12:37:37;30.08;;;8.07;;
71395;SDS011;59888;55.814;37.132;2024-03-17T12:40:03;24.92;;;7.63;;
71395;SDS011;59888;55.814;37.132;2024-03-17T12:42:30;28.00;;;8.60;;
71395;SDS011;59888;55.814;37.132;2024-03-17T12:44:59;22.90;;;6.97;;
71395;SDS011;59888;55.814;37.132;2024-03-17T12:47:27;21.85;;;7.15;;
71395;SDS011;59888;55.814;37.132;2024-03-17T12:49:57;28.80;;;7.88;;
71395;SDS011;59888;55.814;37.132;2024-03-17T12:52:23;29.05;;;8.35;;
71395;SDS011;59888;55.814;37.132;2024-03-17T12:54:59;28.92;;;7.45;;
71395;SDS011;59888;55.814;37.132;2024-03-17T12:57:44;26.67;;;8.95;;
71395;SDS011;59888;55.814;37.132;2024-03-17T13:00:29;20.98;;;8.45;;
71395;SDS011;59888;55.814;37.132;2024-03-17T13:02:58;25.67;;;9.32;;
71395;SDS011;59888;55.814;37.132;2024-03-17T13:05:24;29.48;;;8.52;;
71395;SDS011;59888;55.814;37.132;2024-03-17T13:07:50;28.48;;;8.25;;
71395;SDS011;59888;55.814;37.132;2024-03-17T13:10:17;27.27;;;8.20;;
71395;SDS011;59888;55.814;37.132;2024-03-17T13:12:44;30.52;;;8.02;;
71395;SDS011;59888;55.814;37.132;2024-03-17T13:15:17;29.08;;;9.05;;
71395;SDS011;59888;55.814;37.132;2024-03-17T13:17:43;32.88;;;8.40;;
71395;SDS011;59888;55.814;37.132;2024-03-17T13:20:13;29.55;;;8.40;;
71395;SDS011;59888;55.814;37.132;2024-03-17T13:22:41;41.95;;;9.00;;
71395;SDS011;59888;55.814;37.132;2024-03-17T13:25:25;26.35;;;8.45;;
71395;SDS011;59888;55.814;37.132;2024-03-17T13:28:00;25.50;;;7.30;;
71395;SDS011;59888;55.814;37.132;2024-03-17T13:30:26;30.90;;;8.35;;
71395;SDS011;59888;55.814;37.132;2024-03-17T13:32:54;23.52;;;7.60;;
71395;SDS011;59888;55.814;37.132;2024-03-17T13:35:27;28.33;;;8.45;;
71395;SDS011;59888;55.814;37.132;2024-03-17T13:37:56;34.00;;;8.60;;
71395;SDS011;59888;55.814;37.132;2024-03-17T13:40:25;25.13;;;8.10;;
71395;SDS011;59888;55.814;37.132;2024-03-17T13:42:52;28.95;;;8.30;;
71395;SDS011;59888;55.814;37.132;2024-03-17T13:45:20;26.77;;;7.80;;
71395;SDS011;59888;55.814;37.132;2024-03-17T13:47:48;28.33;;;8.52;;
71395;SDS011;59888;55.814;37.132;2024-03-17T13:50:15;32.72;;;8.43;;
71395;SDS011;59888;55.814;37.132;2024-03-17T13:52:44;31.73;;;8.75;;
71395;SDS011;59888;55.814;37.132;2024-03-17T13:55:19;31.20;;;8.35;;
71395;SDS011;59888;55.814;37.132;2024-03-17T13:57:47;31.73;;;8.30;;
71395;SDS011;59888;55.814;37.132;2024-03-17T14:00:14;40.10;;;7.80;;
71395;SDS011;59888;55.814;37.132;2024-03-17T14:02:45;37.35;;;9.00;;
71395;SDS011;59888;55.814;37.132;2024-03-17T14:05:13;36.47;;;10.18;;
71395;SDS011;59888;55.814;37.132;2024-03-17T14:07:39;37.58;;;7.85;;
71395;SDS011;59888;55.814;37.132;2024-03-17T14:10:05;30.67;;;7.65;;
71395;SDS011;59888;55.814;37.132;2024-03-17T14:12:31;36.38;;;8.43;;
71395;SDS011;59888;55.814;37.132;2024-03-17T14:14:57;37.58;;;8.02;;
71395;SDS011;59888;55.814;37.132;2024-03-17T14:17:23;42.63;;;8.80;;
71395;SDS011;59888;55.814;37.132;2024-03-17T14:19:53;32.95;;;7.80;;
71395;SDS011;59888;55.814;37.132;2024-03-17T14:22:18;38.72;;;9.05;;
71395;SDS011;59888;55.814;37.132;2024-03-17T14:24:44;37.65;;;8.77;;
71395;SDS011;59888;55.814;37.132;2024-03-17T14:27:12;40.25;;;8.65;;
71395;SDS011;59888;55.814;37.132;2024-03-17T14:29:38;39.40;;;9.15;;
71395;SDS011;59888;55.814;37.132;2024-03-17T14:32:04;45.10;;;10.10;;
71395;SDS011;59888;55.814;37.132;2024-03-17T14:34:30;40.03;;;9.05;;
71395;SDS011;59888;55.814;37.132;2024-03-17T14:37:02;41.35;;;8.43;;